Time;durP1;ratioP1;P1;durP2;ratioP2;P2;SDS_P1;SDS_P2;PMS_P1;PMS_P2;Temp;Humidity;BMP_temperature;BMP_pressure;BME280_temperature;BME280_humidity;BME280_pressure;Samples;Min_cycle;Max_cycle;Signal;HPM_P1;HPM_P2
2022/01/13 00:01:52;;;;;;;13.37;8.53;;;;;;;14.44;41.43;104007.44;5054821;28;20029;-71
2022/01/13 00:04:18;;;;;;;12.43;7.82;;;;;;;14.36;41.20;103996.06;5054372;28;20060;-71
2022/01/13 00:06:44;;;;;;;13.23;8.73;;;;;;;14.32;41.20;104003.16;5036601;28;20035;-71
2022/01/13 00:09:10;;;;;;;15.25;9.23;;;;;;;14.29;41.31;104000.94;5054307;28;20033;-70
2022/01/13 00:11:36;;;;;;;12.25;8.38;;;;;;;14.13;41.54;103991.69;5054613;28;20074;-71
2022/01/13 00:19:50;;;;;;;16.90;7.85;;;;;;;14.19;41.41;103993.41;5054244;28;20025;-71
2022/01/13 00:24:51;;;;;;;16.52;9.73;;;;;;;14.12;41.32;103995.53;5054082;28;20056;-70
2022/01/13 00:27:17;;;;;;;15.45;9.85;;;;;;;14.08;41.52;103986.97;5036193;28;20082;-71
2022/01/13 00:29:45;;;;;;;14.18;9.38;;;;;;;14.11;41.37;103999.38;5053971;28;20455;-70
2022/01/13 00:32:14;;;;;;;19.05;9.27;;;;;;;14.12;41.54;103990.03;5053926;28;20021;-71
2022/01/13 00:34:41;;;;;;;13.38;9.32;;;;;;;14.09;41.47;103998.78;5053913;28;20025;-70
2022/01/13 00:37:07;;;;;;;12.85;9.63;;;;;;;14.06;41.55;103993.81;5053822;28;20107;-71
2022/01/13 00:39:33;;;;;;;17.60;8.98;;;;;;;13.97;41.64;104007.16;5054074;28;20113;-70
2022/01/13 00:41:58;;;;;;;17.05;9.45;;;;;;;14.01;41.53;104004.75;5053724;28;20545;-71
2022/01/13 00:44:24;;;;;;;13.88;9.57;;;;;;;14.00;41.55;104001.19;5035792;28;20017;-71
2022/01/13 00:47:00;;;;;;;16.48;9.93;;;;;;;13.96;41.48;104001.94;5053630;28;20056;-71
2022/01/13 00:49:27;;;;;;;18.75;9.50;;;;;;;13.96;41.62;104001.94;5053612;28;20026;-71
2022/01/13 00:51:53;;;;;;;16.10;10.90;;;;;;;13.95;41.54;104009.34;5052943;28;20075;-71
2022/01/13 00:54:19;;;;;;;21.05;11.07;;;;;;;13.92;41.81;104003.56;5035594;28;20411;-71
2022/01/13 00:56:44;;;;;;;17.98;8.80;;;;;;;13.88;41.68;104003.22;5053188;28;20029;-70
2022/01/13 00:59:12;;;;;;;12.30;9.23;;;;;;;13.82;41.65;104010.56;5053410;28;20108;-71
2022/01/13 01:01:41;;;;;;;17.08;10.18;;;;;;;13.72;41.61;104004.13;5053304;28;20020;-70
2022/01/13 01:04:07;;;;;;;14.82;9.13;;;;;;;13.72;41.70;104002.19;5053251;28;20111;-70
2022/01/13 01:06:34;;;;;;;21.92;10.85;;;;;;;13.69;41.51;103999.97;5053498;28;20020;-70
2022/01/13 01:08:59;;;;;;;15.73;10.05;;;;;;;13.62;41.55;104004.00;5053196;28;20025;-71
2022/01/13 01:11:26;;;;;;;11.50;8.98;;;;;;;13.58;41.53;104007.22;5053174;28;20035;-71
2022/01/13 01:13:53;;;;;;;14.63;9.68;;;;;;;13.53;41.59;104012.69;5035181;28;20387;-71
2022/01/13 01:16:20;;;;;;;10.30;8.45;;;;;;;13.45;41.44;104002.13;5052419;28;20491;-71
2022/01/13 01:29:09;;;;;;;18.55;9.27;;;;;;;13.19;41.44;104005.53;5052953;28;20033;-71
2022/01/13 01:31:36;;;;;;;14.77;9.30;;;;;;;13.19;41.35;104000.03;5052910;28;20036;-70
2022/01/13 01:36:35;;;;;;;13.98;9.70;;;;;;;13.29;41.41;104002.97;5052783;28;20029;-70
2022/01/13 01:39:01;;;;;;;14.98;9.90;;;;;;;13.26;41.52;104007.06;5052816;28;20472;-70
2022/01/13 01:41:27;;;;;;;16.60;9.35;;;;;;;13.28;41.56;104009.53;5052666;28;20029;-70
2022/01/13 01:43:58;;;;;;;17.83;9.95;;;;;;;13.24;41.55;104003.75;5034752;28;20387;-70
2022/01/13 01:46:26;;;;;;;17.88;10.07;;;;;;;13.21;41.69;104003.41;5052622;28;20033;-70
2022/01/13 01:48:51;;;;;;;22.58;10.55;;;;;;;13.26;41.84;103996.06;5052518;28;20052;-71
2022/01/13 01:51:17;;;;;;;14.10;10.30;;;;;;;13.33;41.82;103999.47;5052597;28;20065;-71
2022/01/13 01:53:42;;;;;;;12.13;9.35;;;;;;;13.37;41.62;103997.03;5034480;28;20036;-71
2022/01/13 01:56:09;;;;;;;17.27;9.60;;;;;;;13.40;41.69;103992.97;5052492;28;20086;-70
2022/01/13 01:58:36;;;;;;;14.13;9.57;;;;;;;13.45;41.48;104004.00;5052706;28;20399;-70
2022/01/13 02:01:02;;;;;;;12.40;10.13;;;;;;;13.41;41.68;103997.38;5052424;28;20056;-71
2022/01/13 02:03:30;;;;;;;17.20;10.55;;;;;;;13.40;41.80;103996.56;5033535;28;20444;-71
2022/01/13 02:05:56;;;;;;;16.95;10.45;;;;;;;13.36;41.99;103997.28;5052320;28;20029;-71
2022/01/13 02:08:22;;;;;;;14.63;10.60;;;;;;;13.32;42.01;103989.56;5052374;28;20025;-70
2022/01/13 02:10:48;;;;;;;16.98;10.55;;;;;;;13.17;42.16;103994.81;5052564;28;20083;-71
2022/01/13 02:13:21;;;;;;;16.98;10.25;;;;;;;13.21;42.16;103987.75;5052272;28;20040;-70
2022/01/13 02:15:59;;;;;;;19.58;12.13;;;;;;;13.26;41.87;103996.06;5052205;28;20057;-70
2022/01/13 02:18:28;;;;;;;25.27;11.13;;;;;;;13.21;42.16;103989.66;5052519;28;20085;-70
2022/01/13 02:20:56;;;;;;;16.95;10.93;;;;;;;13.26;41.75;103987.00;5052420;28;20075;-71
2022/01/13 02:23:33;;;;;;;15.10;11.40;;;;;;;13.06;41.41;103991.06;5034254;28;20112;-71
2022/01/13 02:25:59;;;;;;;18.73;11.63;;;;;;;13.12;41.56;103986.50;5034369;28;20033;-70
2022/01/13 02:28:26;;;;;;;21.90;11.57;;;;;;;13.02;41.67;103975.38;5052429;28;20029;-70
2022/01/13 02:30:53;;;;;;;16.55;11.20;;;;;;;13.08;41.41;103981.78;5052052;28;20574;-71
2022/01/13 02:33:18;;;;;;;15.15;11.15;;;;;;;13.02;41.44;103978.09;5052029;28;20471;-70
2022/01/13 02:35:44;;;;;;;16.80;11.02;;;;;;;13.00;41.56;103977.53;5051954;28;20044;-70
2022/01/13 02:38:11;;;;;;;16.83;11.02;;;;;;;12.95;41.54;103980.19;5052078;28;20021;-70
2022/01/13 02:40:38;;;;;;;15.52;9.73;;;;;;;12.88;41.39;103976.78;5051969;28;20056;-70
2022/01/13 02:43:05;;;;;;;15.18;10.57;;;;;;;12.77;41.51;103976.63;5051905;28;20040;-71
2022/01/13 02:45:37;;;;;;;14.00;10.48;;;;;;;12.61;41.61;103974.69;5051923;28;20032;-70
2022/01/13 02:48:26;;;;;;;16.77;11.35;;;;;;;12.62;41.60;103975.50;5034107;28;20040;-71
2022/01/13 02:50:53;;;;;;;16.63;10.10;;;;;;;12.64;41.41;103976.94;5052050;28;20383;-70
2022/01/13 02:53:19;;;;;;;16.63;9.45;;;;;;;12.50;41.50;103972.84;5051795;28;20060;-70
2022/01/13 02:55:44;;;;;;;13.23;10.18;;;;;;;12.50;41.42;103975.59;5051868;28;20048;-70
2022/01/13 02:58:14;;;;;;;15.18;10.65;;;;;;;12.41;41.46;103983.41;5051818;28;20040;-70
2022/01/13 03:00:40;;;;;;;15.63;10.48;;;;;;;12.42;41.44;103965.88;5052053;28;20024;-70
2022/01/13 03:03:06;;;;;;;20.35;11.65;;;;;;;12.49;41.44;103972.03;5033910;28;20426;-70
2022/01/13 03:05:37;;;;;;;14.30;11.10;;;;;;;12.50;41.52;103970.94;5052088;28;20078;-70
2022/01/13 03:08:02;;;;;;;16.98;12.07;;;;;;;12.51;41.45;103960.81;5051907;28;20029;-71
2022/01/13 03:10:28;;;;;;;17.92;11.77;;;;;;;12.47;41.47;103968.72;5052045;28;20025;-70
2022/01/13 03:12:55;;;;;;;15.27;10.32;;;;;;;12.52;41.41;103970.69;5033833;28;20119;-71
2022/01/13 03:15:21;;;;;;;14.93;10.75;;;;;;;12.52;41.46;103973.44;5054168;28;20052;-71
2022/01/13 03:17:47;;;;;;;18.75;11.27;;;;;;;12.54;41.44;103970.44;5055630;28;20055;-71
2022/01/13 03:20:12;;;;;;;19.63;12.40;;;;;;;12.48;41.72;103966.78;5055292;28;20032;-70
2022/01/13 03:22:38;;;;;;;20.00;12.68;;;;;;;12.48;41.44;103972.28;5055349;28;20025;-70
2022/01/13 03:25:05;;;;;;;15.25;10.80;;;;;;;12.49;41.63;103963.78;5055016;28;20080;-70
2022/01/13 03:27:34;;;;;;;18.23;13.18;;;;;;;12.48;41.54;103964.06;5055335;28;20416;-70
2022/01/13 03:30:03;;;;;;;19.40;10.85;;;;;;;12.45;41.57;103964.53;5055123;28;20100;-70
2022/01/13 03:32:29;;;;;;;16.77;11.48;;;;;;;12.49;41.53;103962.97;5054969;28;20033;-70
2022/01/13 03:34:54;;;;;;;18.75;11.45;;;;;;;12.50;41.35;103956.41;5055104;28;20373;-71
2022/01/13 03:37:20;;;;;;;21.50;11.65;;;;;;;12.48;41.55;103953.09;5054774;28;20107;-70
2022/01/13 03:39:45;;;;;;;22.15;12.60;;;;;;;12.53;41.81;103953.16;5054942;28;20115;-70
2022/01/13 03:42:11;;;;;;;20.77;10.95;;;;;;;12.58;41.47;103945.00;5037011;28;20031;-70
2022/01/13 03:44:37;;;;;;;18.25;11.23;;;;;;;12.60;41.38;103947.50;5055158;28;20120;-70
2022/01/13 03:47:04;;;;;;;18.10;11.02;;;;;;;12.58;41.43;103939.53;5054804;28;20052;-70
2022/01/13 03:49:32;;;;;;;14.45;11.38;;;;;;;12.53;41.56;103939.44;5055085;28;20104;-71
2022/01/13 03:52:02;;;;;;;20.42;11.63;;;;;;;12.52;41.68;103939.69;5054755;28;20486;-70
2022/01/13 03:54:34;;;;;;;18.67;10.90;;;;;;;12.56;41.82;103941.69;5054633;28;20025;-71
2022/01/13 03:57:22;;;;;;;14.43;10.63;;;;;;;12.38;42.45;103936.44;5054752;28;20490;-71
2022/01/13 04:00:20;;;;;;;18.40;11.00;;;;;;;12.53;41.88;103942.19;5054558;28;20483;-71
2022/01/13 04:02:45;;;;;;;20.00;11.38;;;;;;;12.59;41.67;103941.19;4967962;28;20037;-70
2022/01/13 04:05:11;;;;;;;17.90;11.82;;;;;;;12.55;41.69;103937.28;5036657;28;20112;-70
2022/01/13 04:07:36;;;;;;;13.80;10.68;;;;;;;12.49;41.72;103936.38;5054722;28;20017;-70
2022/01/13 04:10:29;;;;;;;17.52;11.15;;;;;;;12.45;41.92;103935.19;5054467;28;20029;-70
2022/01/13 04:12:55;;;;;;;18.27;12.00;;;;;;;12.52;41.73;103942.44;5054294;28;20021;-70
2022/01/13 04:15:24;;;;;;;21.10;11.63;;;;;;;12.52;41.77;103942.44;5054349;28;20483;-70
2022/01/13 04:17:50;;;;;;;16.27;11.00;;;;;;;12.51;41.70;103944.34;5054262;28;20028;-70
2022/01/13 04:20:15;;;;;;;20.08;11.10;;;;;;;12.47;41.58;103944.03;5054148;28;20017;-70
2022/01/13 04:22:41;;;;;;;18.20;11.20;;;;;;;12.49;41.53;103935.53;5054241;28;20024;-70
2022/01/13 04:25:07;;;;;;;15.35;9.90;;;;;;;12.42;41.55;103945.84;5032079;28;20069;-70
2022/01/13 04:27:37;;;;;;;19.83;11.85;;;;;;;12.38;41.63;103945.47;5033499;28;20401;-70
2022/01/13 04:32:38;;;;;;;16.40;9.68;;;;;;;12.39;41.62;103938.09;5034126;28;20033;-70
2022/01/13 04:35:05;;;;;;;20.77;11.45;;;;;;;12.26;41.78;103936.50;5034039;28;20090;-70
2022/01/13 04:37:30;;;;;;;19.52;11.57;;;;;;;12.33;41.66;103937.19;5033951;28;20031;-70
2022/01/13 04:39:56;;;;;;;16.52;11.65;;;;;;;12.35;41.70;103934.19;5033917;28;20034;-71
2022/01/13 04:42:22;;;;;;;18.58;12.00;;;;;;;12.36;41.71;103933.94;5034005;28;20075;-70
2022/01/13 04:44:48;;;;;;;16.30;10.57;;;;;;;12.36;41.58;103933.94;5033877;28;20036;-70
2022/01/13 04:47:13;;;;;;;20.90;11.18;;;;;;;12.37;41.63;103929.28;5033839;28;20029;-70
2022/01/13 04:49:39;;;;;;;13.48;9.63;;;;;;;12.28;41.71;103928.03;5033736;28;20025;-71
2022/01/13 04:52:04;;;;;;;15.90;10.55;;;;;;;12.25;41.50;103917.56;5034035;28;20419;-70
2022/01/13 04:54:30;;;;;;;21.42;11.75;;;;;;;12.21;41.49;103917.22;5033866;28;20025;-70
2022/01/13 04:57:08;;;;;;;19.95;10.68;;;;;;;12.18;41.79;103913.06;5033672;28;20503;-70
2022/01/13 04:59:34;;;;;;;18.45;11.68;;;;;;;12.18;41.66;103902.09;5033553;28;20037;-70
2022/01/13 05:02:00;;;;;;;16.70;11.48;;;;;;;12.18;41.52;103901.28;5033400;28;20022;-70
2022/01/13 05:04:26;;;;;;;15.90;11.32;;;;;;;12.19;41.52;103898.28;5032116;28;20029;-70
2022/01/13 05:06:52;;;;;;;19.25;11.85;;;;;;;12.09;41.70;103895.38;5033348;28;20036;-71
2022/01/13 05:09:17;;;;;;;16.67;11.27;;;;;;;12.10;41.71;103899.78;5033420;28;20026;-70
2022/01/13 05:11:43;;;;;;;15.27;11.50;;;;;;;12.10;41.75;103904.41;5032674;28;20037;-70
2022/01/13 05:14:09;;;;;;;20.45;11.45;;;;;;;12.02;41.74;103897.44;5010353;28;20034;-70
2022/01/13 05:16:37;;;;;;;21.48;10.98;;;;;;;12.04;41.68;103905.41;5013546;28;20072;-70
2022/01/13 05:22:06;;;;;;;13.73;10.35;;;;;;;11.94;41.59;103900.56;5013473;28;20080;-70
2022/01/13 05:24:30;;;;;;;18.67;12.07;;;;;;;11.89;41.71;103897.72;5021950;28;20045;-71
2022/01/13 05:26:55;;;;;;;13.52;10.73;;;;;;;11.89;41.57;103897.72;5035106;28;20036;-70
2022/01/13 05:29:21;;;;;;;17.23;11.07;;;;;;;11.89;41.60;103894.97;5052842;28;20016;-70
2022/01/13 05:31:49;;;;;;;16.55;11.07;;;;;;;11.89;41.61;103886.75;5052854;28;20052;-70
2022/01/13 05:34:18;;;;;;;19.77;11.20;;;;;;;11.85;41.60;103897.38;5052687;28;20502;-70
2022/01/13 05:36:44;;;;;;;17.52;10.98;;;;;;;11.78;41.67;103893.91;5052585;28;20041;-70
2022/01/13 05:39:11;;;;;;;17.15;10.23;;;;;;;11.77;41.58;103895.00;5034904;28;20029;-70
2022/01/13 05:41:37;;;;;;;13.98;10.20;;;;;;;11.72;41.53;103899.56;5052831;28;20025;-70
2022/01/13 05:44:03;;;;;;;18.17;11.05;;;;;;;11.78;41.64;103909.50;5052656;28;20017;-70
2022/01/13 05:46:29;;;;;;;14.00;10.48;;;;;;;11.70;41.68;103904.44;5052617;28;20031;-70
2022/01/13 05:48:54;;;;;;;16.60;11.15;;;;;;;11.66;41.47;103888.50;5052533;28;20116;-70
2022/01/13 05:51:24;;;;;;;15.00;10.93;;;;;;;11.60;41.33;103894.94;5052557;28;20028;-70
2022/01/13 05:53:50;;;;;;;16.20;10.50;;;;;;;11.57;41.42;103900.91;5052500;28;20033;-71
2022/01/13 05:56:15;;;;;;;17.40;11.68;;;;;;;11.51;41.41;103904.63;5052742;28;20020;-70
2022/01/13 05:58:41;;;;;;;14.07;9.70;;;;;;;11.48;41.41;103899.59;5052450;28;20032;-70
2022/01/13 06:01:07;;;;;;;16.08;10.32;;;;;;;11.47;41.37;103906.16;5052470;28;20062;-70
2022/01/13 06:03:33;;;;;;;14.85;10.10;;;;;;;11.43;41.56;103902.25;5052461;28;20037;-70
2022/01/13 06:05:58;;;;;;;20.58;11.20;;;;;;;11.37;41.56;103906.78;5052397;28;20028;-70
2022/01/13 06:08:24;;;;;;;17.63;11.27;;;;;;;11.39;41.31;103907.38;5052384;28;20037;-70
2022/01/13 06:10:50;;;;;;;16.98;11.50;;;;;;;11.37;41.39;103904.06;5052219;28;20036;-70
2022/01/13 06:13:16;;;;;;;16.02;12.00;;;;;;;11.35;41.48;103898.00;5052450;28;20040;-71
2022/01/13 06:15:41;;;;;;;20.55;10.50;;;;;;;11.34;41.60;103898.25;5052249;28;20029;-70
2022/01/13 06:18:12;;;;;;;19.70;10.07;;;;;;;11.36;41.54;103896.09;5052159;28;20040;-74
2022/01/13 06:20:39;;;;;;;17.15;11.60;;;;;;;11.33;41.68;103891.06;5052488;28;20052;-70
2022/01/13 06:23:07;;;;;;;20.48;11.85;;;;;;;11.37;41.66;103889.53;5052525;28;20117;-70
2022/01/13 06:25:35;;;;;;;18.08;11.23;;;;;;;11.30;41.83;103903.34;5052048;28;20507;-70
2022/01/13 06:28:01;;;;;;;17.92;10.63;;;;;;;11.45;41.44;103902.00;5052208;28;20025;-71
2022/01/13 06:30:27;;;;;;;19.25;11.35;;;;;;;11.43;41.75;103898.69;5048984;28;20021;-70
2022/01/13 06:32:53;;;;;;;19.50;13.57;;;;;;;11.56;41.54;103888.31;5049652;28;20233;-71
2022/01/13 06:35:19;;;;;;;18.33;12.18;;;;;;;11.61;41.54;103895.75;5044731;28;20025;-71
2022/01/13 06:37:45;;;;;;;17.40;12.20;;;;;;;11.65;41.71;103892.31;5035739;28;21010;-70
2022/01/13 06:40:12;;;;;;;18.88;11.27;;;;;;;11.54;41.73;103895.91;5035418;28;20865;-71
2022/01/13 06:42:38;;;;;;;15.85;12.70;;;;;;;11.66;41.62;103893.97;5035758;28;20116;-70
2022/01/13 06:45:06;;;;;;;21.15;11.40;;;;;;;11.65;41.54;103900.53;5035791;28;20043;-71
2022/01/13 06:47:31;;;;;;;16.67;10.25;;;;;;;11.60;41.87;103897.69;5035842;28;20040;-71
2022/01/13 06:49:57;;;;;;;16.70;9.02;;;;;;;11.60;41.57;103897.69;5036081;28;20384;-71
2022/01/13 06:52:23;;;;;;;16.63;10.40;;;;;;;11.56;41.47;103903.88;5055754;28;20170;-70
2022/01/13 06:54:49;;;;;;;17.85;10.63;;;;;;;11.62;41.46;103905.66;5055599;28;20021;-70
2022/01/13 06:57:14;;;;;;;17.35;10.60;;;;;;;11.67;41.31;103903.84;5055779;28;20111;-70
2022/01/13 06:59:40;;;;;;;19.13;11.98;;;;;;;11.70;41.62;103896.22;5055888;28;20039;-70
2022/01/13 07:02:06;;;;;;;23.33;11.68;;;;;;;11.80;41.55;103893.69;5055567;28;20051;-70
2022/01/13 07:04:33;;;;;;;25.55;12.48;;;;;;;11.78;41.82;103895.81;5054326;28;20094;-71
2022/01/13 07:06:59;;;;;;;21.83;11.50;;;;;;;11.74;41.76;103887.28;5055495;28;20060;-71
2022/01/13 07:09:24;;;;;;;19.55;11.55;;;;;;;11.91;41.45;103896.38;5055486;28;20040;-70
2022/01/13 07:11:50;;;;;;;15.80;11.07;;;;;;;11.89;41.69;103898.56;5055504;28;20028;-70
2022/01/13 07:14:16;;;;;;;13.85;11.07;;;;;;;11.91;41.83;103901.03;5055452;28;20044;-70
2022/01/13 07:16:44;;;;;;;16.00;10.85;;;;;;;11.99;41.71;103891.59;5053911;28;20052;-71
2022/01/13 07:19:11;;;;;;;19.48;11.90;;;;;;;11.82;42.02;103895.13;5054168;28;20021;-71
2022/01/13 07:21:38;;;;;;;18.98;11.05;;;;;;;11.98;41.67;103898.97;5055264;28;20079;-70
2022/01/13 07:24:04;;;;;;;18.05;11.75;;;;;;;12.01;41.63;103898.47;5037215;28;20048;-70
2022/01/13 07:26:30;;;;;;;15.52;11.23;;;;;;;12.00;41.93;103893.25;5055019;28;20041;-70
2022/01/13 07:28:55;;;;;;;15.93;11.38;;;;;;;12.03;41.71;103899.09;5054924;28;20025;-70
2022/01/13 07:31:21;;;;;;;21.40;12.25;;;;;;;11.88;42.13;103901.53;5054582;28;20029;-74
2022/01/13 07:33:47;;;;;;;16.30;11.40;;;;;;;12.05;41.76;103902.41;5052872;28;20040;-70
2022/01/13 07:36:13;;;;;;;19.77;11.60;;;;;;;11.99;41.76;103908.03;5051854;28;20103;-71
2022/01/13 07:38:38;;;;;;;16.05;11.15;;;;;;;12.03;41.90;103912.78;5054436;28;20043;-70
2022/01/13 07:41:04;;;;;;;20.65;10.98;;;;;;;11.97;41.85;103924.72;5054365;28;20032;-72
2022/01/13 07:43:31;;;;;;;15.88;10.00;;;;;;;12.04;41.74;103933.63;5054536;28;20028;-70
2022/01/13 07:45:56;;;;;;;18.15;11.60;;;;;;;12.13;41.68;103914.88;5054266;28;20112;-70
2022/01/13 07:48:23;;;;;;;17.70;11.38;;;;;;;12.10;41.56;103916.22;5054592;28;20060;-71
2022/01/13 07:50:48;;;;;;;21.58;12.02;;;;;;;12.08;41.79;103931.22;5054653;28;20029;-71
2022/01/13 07:53:14;;;;;;;17.35;11.90;;;;;;;12.18;41.76;103923.22;5054484;28;20033;-71
2022/01/13 07:55:41;;;;;;;19.67;12.30;;;;;;;12.20;41.88;103924.63;5054675;28;20033;-71
2022/01/13 07:58:06;;;;;;;16.20;11.02;;;;;;;12.27;41.92;103927.19;5054925;28;20047;-70
2022/01/13 08:00:32;;;;;;;22.15;12.05;;;;;;;12.28;41.97;103930.78;5053983;28;20033;-71
2022/01/13 08:02:57;;;;;;;17.13;11.07;;;;;;;12.38;41.90;103939.16;5054232;28;20129;-71
2022/01/13 08:05:23;;;;;;;18.40;11.88;;;;;;;12.36;42.05;103933.09;5052554;28;20040;-71
2022/01/13 08:07:48;;;;;;;21.23;12.18;;;;;;;12.47;42.13;103940.44;5053868;28;20596;-71
2022/01/13 08:10:14;;;;;;;24.23;14.15;;;;;;;12.43;42.08;103942.84;5053944;28;20021;-71
2022/01/13 08:12:40;;;;;;;21.80;12.80;;;;;;;12.55;41.98;103940.03;5052913;28;20028;-75
2022/01/13 08:15:10;;;;;;;18.38;11.90;;;;;;;12.70;41.92;103947.69;5041114;28;20033;-71
2022/01/13 08:20:34;;;;;;;22.33;12.10;;;;;;;12.70;42.10;103947.69;4965945;28;20031;-76
2022/01/13 08:23:00;;;;;;;22.50;11.35;;;;;;;12.73;42.43;103942.53;5037305;28;20103;-74
2022/01/13 08:25:27;;;;;;;22.63;12.43;;;;;;;12.69;42.73;103946.84;5037901;28;20527;-73
2022/01/13 08:27:55;;;;;;;24.75;12.07;;;;;;;12.97;42.07;103943.16;5044713;28;20434;-71
2022/01/13 08:30:21;;;;;;;23.23;11.32;;;;;;;12.93;42.57;103946.69;5053894;28;20104;-72
2022/01/13 08:32:47;;;;;;;18.35;11.27;;;;;;;12.98;42.44;103944.81;5052708;28;20387;-72
2022/01/13 08:35:13;;;;;;;15.10;10.02;;;;;;;13.10;42.52;103952.97;5052657;28;20017;-72
2022/01/13 08:37:39;;;;;;;17.85;11.18;;;;;;;13.20;42.31;103950.41;5033509;28;20028;-72
2022/01/13 08:40:08;;;;;;;18.88;10.07;;;;;;;13.20;42.67;103944.91;5053212;28;20029;-72
2022/01/13 08:42:35;;;;;;;19.88;10.77;;;;;;;13.28;42.71;103943.63;5053390;28;20028;-72
2022/01/13 08:45:02;;;;;;;26.02;11.05;;;;;;;13.24;42.98;103940.59;5053513;28;20029;-72
2022/01/13 08:47:28;;;;;;;22.95;11.05;;;;;;;13.16;43.29;103945.66;5053010;28;20112;-72
2022/01/13 08:49:53;;;;;;;21.30;10.63;;;;;;;13.30;43.06;103933.25;5053789;28;20119;-74
2022/01/13 08:52:19;;;;;;;16.17;10.35;;;;;;;13.36;43.06;103945.94;5053513;28;20543;-72
2022/01/13 08:54:46;;;;;;;16.25;10.07;;;;;;;13.40;42.96;103951.78;5053655;28;20207;-72
2022/01/13 08:57:13;;;;;;;20.75;10.93;;;;;;;13.47;43.06;103946.94;5035508;28;20029;-72
2022/01/13 08:59:39;;;;;;;22.52;11.02;;;;;;;13.49;43.03;103948.31;5053526;28;20036;-71
2022/01/13 09:02:05;;;;;;;20.08;11.07;;;;;;;13.45;43.29;103944.44;5053197;28;20512;-74
2022/01/13 09:04:30;;;;;;;19.77;10.05;;;;;;;13.52;43.09;103950.56;5053723;28;20132;-73
2022/01/13 09:06:56;;;;;;;15.80;10.20;;;;;;;13.45;43.31;103949.94;5051568;28;20083;-71
2022/01/13 09:09:22;;;;;;;21.65;10.82;;;;;;;13.49;43.51;103940.09;5053090;28;20029;-72
2022/01/13 09:11:48;;;;;;;21.10;11.02;;;;;;;13.54;43.29;103945.66;5052814;28;20032;-71
2022/01/13 09:14:16;;;;;;;25.98;10.98;;;;;;;13.57;43.18;103944.31;5052982;28;20065;-71
2022/01/13 09:16:45;;;;;;;23.38;11.10;;;;;;;13.59;43.20;103942.94;5053030;28;20106;-71
2022/01/13 09:19:13;;;;;;;18.83;10.68;;;;;;;13.69;42.85;103947.75;5035044;28;20048;-71
2022/01/13 09:21:42;;;;;;;17.05;10.02;;;;;;;13.66;43.11;103956.50;5052859;28;20365;-71
2022/01/13 09:24:11;;;;;;;18.65;11.73;;;;;;;13.73;42.97;103950.81;5052682;28;20051;-71
2022/01/13 09:26:37;;;;;;;26.30;12.43;;;;;;;13.67;43.30;103958.16;5052726;28;20128;-71
2022/01/13 09:29:04;;;;;;;23.25;9.90;;;;;;;13.68;43.17;103957.09;5052657;28;20053;-71
2022/01/13 09:31:31;;;;;;;18.92;10.55;;;;;;;13.70;43.16;103960.41;5052966;28;20021;-71
2022/01/13 09:33:57;;;;;;;19.25;11.77;;;;;;;13.73;43.19;103959.06;5052230;28;20029;-71
2022/01/13 09:36:23;;;;;;;24.13;10.93;;;;;;;13.77;42.95;103957.47;5051831;28;20083;-72
2022/01/13 09:38:48;;;;;;;22.45;11.73;;;;;;;13.81;42.88;103961.34;5050406;28;20029;-71
2022/01/13 09:41:14;;;;;;;19.48;9.68;;;;;;;13.83;43.09;103960.03;5051466;28;20028;-72
2022/01/13 09:43:43;;;;;;;17.33;10.15;;;;;;;13.71;43.29;103961.25;5051817;28;20111;-71
2022/01/13 09:46:10;;;;;;;23.95;10.27;;;;;;;13.89;42.89;103961.72;5052271;28;20029;-74
2022/01/13 09:48:41;;;;;;;16.92;9.95;;;;;;;13.92;43.00;103965.06;5052217;28;20024;-72
2022/01/13 09:51:06;;;;;;;15.45;8.80;;;;;;;13.97;42.92;103957.69;5052036;28;20029;-71
2022/01/13 09:53:33;;;;;;;15.27;9.93;;;;;;;13.96;43.15;103961.53;5051910;28;20047;-71
2022/01/13 09:55:58;;;;;;;15.77;10.18;;;;;;;14.01;43.10;103972.59;5052430;28;20370;-72
2022/01/13 09:58:24;;;;;;;19.38;10.30;;;;;;;14.14;42.90;103965.88;5052326;28;20029;-71
2022/01/13 10:00:50;;;;;;;13.68;9.45;;;;;;;14.24;42.81;103970.63;5051898;28;20494;-72
2022/01/13 10:03:26;;;;;;;22.05;10.93;;;;;;;14.28;42.78;103961.63;5052587;28;20478;-73
2022/01/13 10:05:57;;;;;;;18.73;9.95;;;;;;;14.33;42.70;103955.31;5035521;28;20104;-74
2022/01/13 10:08:39;;;;;;;19.27;10.70;;;;;;;14.41;42.93;103952.09;5050708;28;20021;-71
2022/01/13 10:11:32;;;;;;;19.05;9.63;;;;;;;14.27;43.34;103959.94;5052315;28;20052;-75
2022/01/13 10:14:11;;;;;;;15.70;10.18;;;;;;;14.44;43.00;103959.84;5047570;28;20086;-72
2022/01/13 10:16:48;;;;;;;19.30;10.80;;;;;;;14.57;42.67;103953.91;5034417;28;20029;-72
2022/01/13 10:19:35;;;;;;;22.05;10.73;;;;;;;14.51;43.10;103945.88;5052208;28;20033;-72
2022/01/13 10:22:07;;;;;;;19.80;11.80;;;;;;;14.60;42.92;103952.56;5036542;28;20035;-72
2022/01/13 10:24:37;;;;;;;17.35;10.18;;;;;;;14.64;42.75;103957.28;5037451;28;20075;-72
2022/01/13 10:27:09;;;;;;;19.83;9.68;;;;;;;14.63;42.93;103958.38;5040379;28;20151;-72
2022/01/13 10:29:49;;;;;;;16.52;9.63;;;;;;;14.71;42.97;103949.63;5040525;28;20387;-71
2022/01/13 10:32:38;;;;;;;22.85;10.82;;;;;;;14.67;42.77;103953.19;5049028;28;20125;-75
2022/01/13 10:35:05;;;;;;;15.25;10.75;;;;;;;14.91;42.77;103950.88;5055477;28;20036;-72
2022/01/13 10:37:33;;;;;;;18.27;9.38;;;;;;;14.86;43.16;103959.94;5055866;28;20025;-71
2022/01/13 10:40:07;;;;;;;17.33;10.43;;;;;;;14.91;42.92;103962.72;5046149;28;20467;-71
2022/01/13 10:44:59;;;;;;;18.02;13.20;;;;;;;15.02;42.87;103962.78;5055952;28;20029;-71
2022/01/13 10:47:27;;;;;;;18.00;11.32;;;;;;;15.17;42.68;103957.38;5056046;28;20501;-71
2022/01/13 10:49:53;;;;;;;20.02;12.00;;;;;;;15.23;42.58;103948.88;5055844;28;20033;-71
2022/01/13 10:52:24;;;;;;;20.15;10.30;;;;;;;15.17;42.83;103954.63;5055395;28;20033;-72
2022/01/13 10:55:00;;;;;;;17.35;10.45;;;;;;;15.30;42.72;103953.31;5054965;28;20048;-72
2022/01/13 10:57:27;;;;;;;24.10;17.38;;;;;;;15.32;42.56;103965.72;5055052;28;20032;-71
2022/01/13 10:59:53;;;;;;;21.85;19.33;;;;;;;15.39;42.62;103963.56;5055019;28;20017;-74
2022/01/13 11:02:20;;;;;;;21.25;15.05;;;;;;;15.47;42.49;103963.06;5051429;28;20509;-73
2022/01/13 11:04:47;;;;;;;46.35;41.97;;;;;;;15.46;42.67;103966.09;5054638;28;20037;-71
2022/01/13 11:07:24;;;;;;;24.90;22.48;;;;;;;15.50;42.61;103965.28;5055258;28;20025;-72
2022/01/13 11:09:56;;;;;;;22.90;18.80;;;;;;;15.55;42.41;103973.56;5051331;28;20048;-72
2022/01/13 11:12:37;;;;;;;14.25;9.27;;;;;;;15.52;42.09;103970.53;5037256;28;20060;-73
2022/01/13 11:15:17;;;;;;;17.23;10.50;;;;;;;15.47;42.72;103976.84;5054577;28;20519;-72
2022/01/13 11:17:45;;;;;;;10.73;8.18;;;;;;;15.65;42.50;103963.72;5055468;28;20021;-71
2022/01/13 11:20:14;;;;;;;25.02;18.85;;;;;;;15.67;42.43;103969.81;5055379;28;20394;-72
2022/01/13 11:22:43;;;;;;;21.67;9.77;;;;;;;15.70;42.47;103970.06;5055534;28;20025;-75
2022/01/13 11:25:12;;;;;;;17.85;11.48;;;;;;;15.74;42.34;103968.44;5055084;28;20041;-74
2022/01/13 11:27:39;;;;;;;19.05;9.18;;;;;;;15.81;42.33;103968.22;5055213;28;20032;-71
2022/01/13 11:30:08;;;;;;;13.35;8.23;;;;;;;15.89;42.15;103966.84;5037287;28;20017;-72
2022/01/13 11:32:35;;;;;;;11.65;7.50;;;;;;;15.95;42.01;103966.59;5055069;28;20060;-71
2022/01/13 11:35:01;;;;;;;10.88;7.80;;;;;;;16.01;41.94;103959.16;5024348;28;20112;-72
2022/01/13 11:37:31;;;;;;;13.80;5.95;;;;;;;15.99;42.22;103977.91;5039775;28;20021;-75
2022/01/13 11:39:58;;;;;;;12.52;9.10;;;;;;;16.07;42.37;103966.34;5039218;28;20024;-73
2022/01/13 11:42:24;;;;;;;11.00;5.32;;;;;;;16.14;41.92;103963.31;5033577;28;20055;-72
2022/01/13 11:45:15;;;;;;;13.23;6.25;;;;;;;16.16;42.02;103953.66;5037512;28;20074;-72
2022/01/13 11:47:41;;;;;;;9.90;5.78;;;;;;;16.18;42.11;103945.97;5038357;28;20064;-72